Time;durP1;ratioP1;P1;durP2;ratioP2;P2;SDS_P1;SDS_P2;PMS_P1;PMS_P2;Temp;Humidity;BMP_temperature;BMP_pressure;BME280_temperature;BME280_humidity;BME280_pressure;Samples;Min_cycle;Max_cycle;Signal;HPM_P1;HPM_P2
2022/12/21 00:01:23;;;;;;;80.90;13.83;;;;;;;;;;5133119;27;20280;-79
2022/12/21 00:03:54;;;;;;;91.30;14.90;;;;;;;;;;5133211;27;20240;-80
2022/12/21 00:06:22;;;;;;;126.60;16.40;;;;;;;;;;5133401;27;20227;-80
2022/12/21 00:08:52;;;;;;;128.30;15.80;;;;;;;;;;5131699;27;20199;-80
2022/12/21 00:11:21;;;;;;;103.67;15.43;;;;;;;;;;5133183;27;20234;-80
2022/12/21 00:13:48;;;;;;;103.27;15.80;;;;;;;;;;5133299;27;20185;-80
2022/12/21 00:16:16;;;;;;;84.57;15.97;;;;;;;;;;5132599;27;20229;-80
2022/12/21 00:18:44;;;;;;;74.63;16.00;;;;;;;;;;5131294;27;20680;-80
2022/12/21 00:21:13;;;;;;;81.27;15.73;;;;;;;;;;5133654;27;20235;-80
2022/12/21 00:23:41;;;;;;;77.07;15.57;;;;;;;;;;5133577;27;20699;-80
2022/12/21 00:26:09;;;;;;;67.63;15.70;;;;;;;;;;5133331;27;20201;-80
2022/12/21 00:28:36;;;;;;;67.80;16.07;;;;;;;;;;5133066;27;20228;-80
2022/12/21 00:31:08;;;;;;;73.90;16.07;;;;;;;;;;5129088;27;20232;-80
2022/12/21 00:33:36;;;;;;;54.87;15.03;;;;;;;;;;5133144;27;20208;-80
2022/12/21 00:36:03;;;;;;;47.20;15.07;;;;;;;;;;5133713;27;20197;-80
2022/12/21 00:38:33;;;;;;;48.97;14.60;;;;;;;;;;5118261;27;20201;-80
2022/12/21 00:41:02;;;;;;;34.90;14.20;;;;;;;;;;5131794;27;20228;-79
2022/12/21 00:43:30;;;;;;;41.80;13.97;;;;;;;;;;5132834;27;20213;-80
2022/12/21 00:45:57;;;;;;;41.47;13.73;;;;;;;;;;5132756;27;20232;-80
2022/12/21 00:48:24;;;;;;;40.23;14.07;;;;;;;;;;5132148;27;20272;-80
2022/12/21 00:50:52;;;;;;;35.63;13.13;;;;;;;;;;5128840;27;20237;-80
2022/12/21 00:53:20;;;;;;;38.73;12.93;;;;;;;;;;5128610;27;20237;-80
2022/12/21 00:55:56;;;;;;;50.27;13.33;;;;;;;;;;5133105;27;20241;-80
2022/12/21 00:58:24;;;;;;;29.33;13.23;;;;;;;;;;5131958;27;20211;-79
2022/12/21 01:00:52;;;;;;;39.90;13.27;;;;;;;;;;5128464;27;20269;-80
2022/12/21 01:03:20;;;;;;;37.47;13.00;;;;;;;;;;5132068;27;20264;-80
2022/12/21 01:05:47;;;;;;;36.90;13.80;;;;;;;;;;5132732;27;20240;-80
2022/12/21 01:08:15;;;;;;;40.27;12.63;;;;;;;;;;5131246;27;20638;-79
2022/12/21 01:10:42;;;;;;;39.70;13.73;;;;;;;;;;5124889;27;20229;-79
2022/12/21 01:13:11;;;;;;;37.03;13.27;;;;;;;;;;5123481;28;20254;-78
2022/12/21 01:15:41;;;;;;;39.83;14.33;;;;;;;;;;5131676;28;20235;-81
2022/12/21 01:18:08;;;;;;;25.40;13.17;;;;;;;;;;5133500;28;20193;-78
2022/12/21 01:20:40;;;;;;;32.33;13.53;;;;;;;;;;5133343;28;20228;-78
2022/12/21 01:23:07;;;;;;;38.77;13.80;;;;;;;;;;5133005;28;20221;-78
2022/12/21 01:25:34;;;;;;;35.63;14.10;;;;;;;;;;5132196;28;20231;-80
2022/12/21 01:28:01;;;;;;;31.80;13.43;;;;;;;;;;5133343;28;20240;-80
2022/12/21 01:30:30;;;;;;;28.17;13.40;;;;;;;;;;5132884;28;20248;-79
2022/12/21 01:32:57;;;;;;;30.80;14.27;;;;;;;;;;5132739;28;20225;-79
2022/12/21 01:35:24;;;;;;;32.53;13.03;;;;;;;;;;5132994;28;20233;-80
2022/12/21 01:37:52;;;;;;;27.47;13.10;;;;;;;;;;5133100;28;20235;-80
2022/12/21 01:40:19;;;;;;;29.53;12.97;;;;;;;;;;5132867;28;20197;-80
2022/12/21 01:42:46;;;;;;;25.67;12.73;;;;;;;;;;5132508;28;20702;-81
2022/12/21 01:45:17;;;;;;;25.23;12.97;;;;;;;;;;5132213;28;20240;-81
2022/12/21 01:47:47;;;;;;;28.93;12.87;;;;;;;;;;5133012;28;20203;-80
2022/12/21 01:50:24;;;;;;;25.60;11.93;;;;;;;;;;5133306;28;20663;-80
2022/12/21 01:52:51;;;;;;;23.23;11.70;;;;;;;;;;5133490;28;20235;-81
2022/12/21 01:55:19;;;;;;;25.87;11.23;;;;;;;;;;5133188;28;20336;-81
2022/12/21 01:57:46;;;;;;;25.87;11.60;;;;;;;;;;5131856;28;20233;-81
2022/12/21 02:00:14;;;;;;;24.57;11.10;;;;;;;;;;5131680;28;20233;-81
2022/12/21 02:02:44;;;;;;;24.97;11.90;;;;;;;;;;5134139;27;20231;-80
2022/12/21 02:05:16;;;;;;;23.10;11.23;;;;;;;;;;5136282;27;20221;-80
2022/12/21 02:07:44;;;;;;;19.30;11.40;;;;;;;;;;5136729;27;20665;-80
2022/12/21 02:10:11;;;;;;;24.30;11.77;;;;;;;;;;5135808;27;20233;-80
2022/12/21 02:12:39;;;;;;;20.87;11.13;;;;;;;;;;5136888;27;20231;-80
2022/12/21 02:15:06;;;;;;;25.07;11.33;;;;;;;;;;5136399;27;20231;-79
2022/12/21 02:17:37;;;;;;;17.10;10.80;;;;;;;;;;5135593;27;20238;-80
2022/12/21 02:20:28;;;;;;;19.23;10.23;;;;;;;;;;5115863;28;20295;-80
2022/12/21 02:23:10;;;;;;;21.87;10.53;;;;;;;;;;5090296;28;20252;-80
2022/12/21 02:25:52;;;;;;;22.63;10.37;;;;;;;;;;5134698;27;20265;-80
2022/12/21 02:28:32;;;;;;;24.03;11.70;;;;;;;;;;5115215;27;20239;-79
2022/12/21 02:31:11;;;;;;;24.03;10.70;;;;;;;;;;5135536;27;20655;-80
2022/12/21 02:33:42;;;;;;;19.10;10.33;;;;;;;;;;5115416;28;20244;-80
2022/12/21 02:36:17;;;;;;;16.97;10.00;;;;;;;;;;5126208;27;20228;-80
2022/12/21 02:38:49;;;;;;;19.77;10.90;;;;;;;;;;5135884;27;20796;-79
2022/12/21 02:41:21;;;;;;;22.23;11.53;;;;;;;;;;5136251;27;20231;-80
2022/12/21 02:46:39;;;;;;;25.30;10.17;;;;;;;;;;5135994;27;20201;-80
2022/12/21 02:49:08;;;;;;;19.37;10.90;;;;;;;;;;5136030;27;20199;-80
2022/12/21 02:51:36;;;;;;;19.90;10.57;;;;;;;;;;5134962;27;20638;-80
2022/12/21 02:54:04;;;;;;;20.63;10.37;;;;;;;;;;5135341;27;20623;-80
2022/12/21 02:56:31;;;;;;;17.97;10.63;;;;;;;;;;5135699;27;20239;-80
2022/12/21 02:58:59;;;;;;;18.20;10.53;;;;;;;;;;5135385;27;20698;-80
2022/12/21 03:01:35;;;;;;;21.80;10.90;;;;;;;;;;5135403;27;20264;-79
2022/12/21 03:04:10;;;;;;;17.83;9.97;;;;;;;;;;5135719;27;20258;-80
2022/12/21 03:06:57;;;;;;;16.90;10.10;;;;;;;;;;5134503;27;20205;-79
2022/12/21 03:09:30;;;;;;;19.10;9.90;;;;;;;;;;5134875;27;20219;-79
2022/12/21 03:11:59;;;;;;;22.47;10.77;;;;;;;;;;5134806;27;20752;-80
2022/12/21 03:14:34;;;;;;;22.63;10.20;;;;;;;;;;5134127;27;20227;-80
2022/12/21 03:17:06;;;;;;;18.23;9.77;;;;;;;;;;5135435;27;20236;-80
2022/12/21 03:19:39;;;;;;;24.03;10.07;;;;;;;;;;5135118;27;20235;-80
2022/12/21 03:22:08;;;;;;;26.83;11.03;;;;;;;;;;5134946;27;20197;-80
2022/12/21 03:24:38;;;;;;;22.63;10.90;;;;;;;;;;5134843;27;20303;-80
2022/12/21 03:27:10;;;;;;;19.13;10.47;;;;;;;;;;5134690;27;20244;-80
2022/12/21 03:29:39;;;;;;;17.97;8.77;;;;;;;;;;5135025;27;20254;-80
2022/12/21 03:32:08;;;;;;;18.67;10.17;;;;;;;;;;5134860;27;20281;-80
2022/12/21 03:34:38;;;;;;;18.67;9.50;;;;;;;;;;5133930;27;20239;-80
2022/12/21 03:37:07;;;;;;;19.93;9.73;;;;;;;;;;5134684;27;20228;-80
2022/12/21 03:39:35;;;;;;;20.77;9.20;;;;;;;;;;5130543;27;20676;-80
2022/12/21 03:42:07;;;;;;;19.13;8.93;;;;;;;;;;5134452;27;20199;-80
2022/12/21 03:44:37;;;;;;;21.90;8.83;;;;;;;;;;5134389;27;20249;-80
2022/12/21 03:47:07;;;;;;;25.37;9.60;;;;;;;;;;5135076;27;20241;-79
2022/12/21 03:49:35;;;;;;;22.97;8.77;;;;;;;;;;5134655;27;20243;-79
2022/12/21 03:52:07;;;;;;;20.17;8.83;;;;;;;;;;5134365;27;20205;-80
2022/12/21 03:54:38;;;;;;;20.10;9.67;;;;;;;;;;5133153;27;20684;-80
2022/12/21 03:57:06;;;;;;;20.57;9.33;;;;;;;;;;5134046;27;20235;-80
2022/12/21 03:59:33;;;;;;;19.63;9.20;;;;;;;;;;5133658;27;20221;-80
2022/12/21 04:02:03;;;;;;;20.00;8.87;;;;;;;;;;5134108;27;20666;-80
2022/12/21 04:04:33;;;;;;;22.10;8.73;;;;;;;;;;5134169;27;20256;-80
2022/12/21 04:07:02;;;;;;;22.60;9.30;;;;;;;;;;5134007;27;20238;-80
2022/12/21 04:09:30;;;;;;;18.13;8.53;;;;;;;;;;5133188;27;20748;-79
2022/12/21 04:14:42;;;;;;;16.93;8.17;;;;;;;;;;5133402;27;20251;-79
2022/12/21 04:17:09;;;;;;;14.83;7.93;;;;;;;;;;5134471;27;20233;-80
2022/12/21 04:30:34;;;;;;;20.23;8.13;;;;;;;;;;5134007;27;20596;-80
2022/12/21 04:33:01;;;;;;;18.50;7.47;;;;;;;;;;5133625;27;20694;-80
2022/12/21 04:35:28;;;;;;;15.90;7.73;;;;;;;;;;5134275;27;20228;-80
2022/12/21 04:37:55;;;;;;;19.37;7.20;;;;;;;;;;5132458;27;20227;-80
2022/12/21 04:40:23;;;;;;;15.07;7.60;;;;;;;;;;5133881;27;20204;-80
2022/12/21 04:42:50;;;;;;;17.27;7.77;;;;;;;;;;5133707;27;20236;-80
2022/12/21 04:45:18;;;;;;;19.73;7.87;;;;;;;;;;5133443;27;20667;-80
2022/12/21 04:47:45;;;;;;;18.57;8.17;;;;;;;;;;5132672;27;20244;-79
2022/12/21 04:50:13;;;;;;;16.60;7.77;;;;;;;;;;5132664;27;20231;-79
2022/12/21 04:52:40;;;;;;;16.53;7.77;;;;;;;;;;5133096;27;20228;-80
2022/12/21 04:55:07;;;;;;;16.53;8.17;;;;;;;;;;5132234;27;20217;-80
2022/12/21 04:57:36;;;;;;;16.87;8.33;;;;;;;;;;5132554;27;20225;-80
2022/12/21 05:00:05;;;;;;;18.70;8.23;;;;;;;;;;5133430;27;20283;-80
2022/12/21 05:02:32;;;;;;;19.07;8.63;;;;;;;;;;5131550;27;20232;-79
2022/12/21 05:04:59;;;;;;;23.10;9.00;;;;;;;;;;5132710;27;20247;-80
2022/12/21 05:07:26;;;;;;;26.10;9.87;;;;;;;;;;5127803;27;20229;-80
2022/12/21 05:09:53;;;;;;;16.87;10.13;;;;;;;;;;5112776;28;20712;-80
2022/12/21 05:12:21;;;;;;;21.40;10.83;;;;;;;;;;5126663;27;20228;-80
2022/12/21 05:14:49;;;;;;;31.27;12.23;;;;;;;;;;5133484;27;20329;-80
2022/12/21 05:17:16;;;;;;;24.37;12.47;;;;;;;;;;5133023;28;20201;-80
2022/12/21 05:19:46;;;;;;;29.93;14.33;;;;;;;;;;5132988;28;20536;-80
2022/12/21 05:22:16;;;;;;;32.80;14.30;;;;;;;;;;5132646;28;20204;-80
2022/12/21 05:24:43;;;;;;;34.63;14.63;;;;;;;;;;5132096;28;20692;-80
2022/12/21 05:27:10;;;;;;;31.93;14.90;;;;;;;;;;5132590;28;20224;-79
2022/12/21 05:29:37;;;;;;;33.67;15.27;;;;;;;;;;5133149;28;20650;-80
2022/12/21 05:32:06;;;;;;;31.43;14.67;;;;;;;;;;5133414;28;20235;-80
2022/12/21 05:34:33;;;;;;;32.03;14.57;;;;;;;;;;5132542;28;20687;-80
2022/12/21 05:37:01;;;;;;;30.07;14.93;;;;;;;;;;5134286;27;20231;-80
2022/12/21 05:39:28;;;;;;;28.93;15.37;;;;;;;;;;5137102;27;20231;-80
2022/12/21 05:41:55;;;;;;;32.47;15.33;;;;;;;;;;5137199;27;20235;-80
2022/12/21 05:44:22;;;;;;;33.90;14.97;;;;;;;;;;5135975;27;20256;-80
2022/12/21 05:46:49;;;;;;;29.30;14.87;;;;;;;;;;5116824;28;20233;-80
2022/12/21 05:49:18;;;;;;;30.07;15.13;;;;;;;;;;5116491;28;20233;-80
2022/12/21 05:51:47;;;;;;;31.03;15.00;;;;;;;;;;5122244;27;20257;-80
2022/12/21 05:54:15;;;;;;;33.70;14.00;;;;;;;;;;5136987;27;20199;-80
2022/12/21 05:56:42;;;;;;;29.17;14.17;;;;;;;;;;5136297;27;20225;-80
2022/12/21 05:59:09;;;;;;;29.40;14.27;;;;;;;;;;5135677;27;20236;-80
2022/12/21 06:01:37;;;;;;;27.60;13.13;;;;;;;;;;5135402;27;20259;-80
2022/12/21 06:04:04;;;;;;;22.77;12.67;;;;;;;;;;5129505;27;20259;-80
2022/12/21 06:06:33;;;;;;;24.07;13.60;;;;;;;;;;5135088;27;20220;-80
2022/12/21 06:09:00;;;;;;;28.30;13.77;;;;;;;;;;5136389;27;20233;-80
2022/12/21 06:11:27;;;;;;;24.97;13.27;;;;;;;;;;5135854;27;20240;-80
2022/12/21 06:13:55;;;;;;;23.30;13.13;;;;;;;;;;5136345;27;20272;-80
2022/12/21 06:16:23;;;;;;;28.07;14.30;;;;;;;;;;5135409;27;20239;-80
2022/12/21 06:18:50;;;;;;;24.43;13.87;;;;;;;;;;5136636;27;20193;-80
2022/12/21 06:21:18;;;;;;;22.37;13.33;;;;;;;;;;5135529;27;20279;-80
2022/12/21 06:23:47;;;;;;;25.27;14.90;;;;;;;;;;5133504;27;20224;-80
2022/12/21 06:26:16;;;;;;;28.73;14.90;;;;;;;;;;5115853;28;20233;-80
2022/12/21 06:28:43;;;;;;;30.57;15.13;;;;;;;;;;5116850;27;20229;-80
2022/12/21 06:31:12;;;;;;;29.57;15.67;;;;;;;;;;5136348;27;20640;-80
2022/12/21 06:33:40;;;;;;;26.07;15.77;;;;;;;;;;5135650;27;20265;-80
2022/12/21 06:36:08;;;;;;;33.47;16.30;;;;;;;;;;5136221;27;20232;-80
2022/12/21 06:38:35;;;;;;;30.13;15.70;;;;;;;;;;5135930;27;20235;-80
2022/12/21 06:41:06;;;;;;;25.87;16.07;;;;;;;;;;5135960;27;20232;-80
2022/12/21 06:43:37;;;;;;;26.67;16.33;;;;;;;;;;5135620;27;20695;-80
2022/12/21 06:46:05;;;;;;;27.63;16.40;;;;;;;;;;5136184;27;20267;-80
2022/12/21 06:48:35;;;;;;;34.73;16.07;;;;;;;;;;5134080;27;20232;-80
2022/12/21 06:51:03;;;;;;;33.57;17.27;;;;;;;;;;5135733;27;20197;-80
2022/12/21 06:53:31;;;;;;;26.67;16.90;;;;;;;;;;5135168;27;20217;-79
2022/12/21 06:55:59;;;;;;;31.57;16.87;;;;;;;;;;5135362;27;20680;-80
2022/12/21 06:58:28;;;;;;;32.00;16.87;;;;;;;;;;5135122;27;20207;-80
2022/12/21 07:00:55;;;;;;;33.20;15.60;;;;;;;;;;5135090;27;20600;-80
2022/12/21 07:03:23;;;;;;;26.43;15.77;;;;;;;;;;5114816;28;20263;-80
2022/12/21 07:05:50;;;;;;;24.13;13.87;;;;;;;;;;5113143;28;20762;-80
2022/12/21 07:08:17;;;;;;;24.37;13.67;;;;;;;;;;5115210;28;20202;-80
2022/12/21 07:10:44;;;;;;;20.37;12.10;;;;;;;;;;5115138;28;20244;-80
2022/12/21 07:13:12;;;;;;;23.97;12.67;;;;;;;;;;5133505;27;20630;-80
2022/12/21 07:15:40;;;;;;;19.90;12.00;;;;;;;;;;5135771;27;20288;-80
2022/12/21 07:18:08;;;;;;;23.30;11.37;;;;;;;;;;5135008;27;20228;-80
2022/12/21 07:20:35;;;;;;;18.93;11.10;;;;;;;;;;5135654;27;20228;-80
2022/12/21 07:23:02;;;;;;;23.43;11.33;;;;;;;;;;5122427;27;20197;-80
2022/12/21 07:25:29;;;;;;;17.87;10.43;;;;;;;;;;5114122;28;20301;-80
2022/12/21 07:27:57;;;;;;;23.73;11.20;;;;;;;;;;5114577;28;20685;-80
2022/12/21 07:30:24;;;;;;;17.80;10.87;;;;;;;;;;5113758;28;20233;-80
2022/12/21 07:32:54;;;;;;;20.10;10.60;;;;;;;;;;5114343;28;20206;-80
2022/12/21 07:35:22;;;;;;;19.67;10.60;;;;;;;;;;5096363;28;20231;-79
2022/12/21 07:37:50;;;;;;;21.13;11.00;;;;;;;;;;5107507;28;20204;-80
2022/12/21 07:40:17;;;;;;;16.90;9.20;;;;;;;;;;5114436;28;20255;-79
2022/12/21 07:42:45;;;;;;;17.00;9.43;;;;;;;;;;5113989;28;20240;-80
2022/12/21 07:45:12;;;;;;;16.57;9.67;;;;;;;;;;5113968;28;20221;-80
2022/12/21 07:47:39;;;;;;;18.10;9.87;;;;;;;;;;5113689;28;20548;-80
2022/12/21 07:50:09;;;;;;;16.57;10.17;;;;;;;;;;5114405;28;20228;-80
2022/12/21 07:52:36;;;;;;;19.17;9.57;;;;;;;;;;5113737;28;20236;-80
2022/12/21 07:55:03;;;;;;;16.83;9.73;;;;;;;;;;5114022;28;20194;-80
2022/12/21 07:57:32;;;;;;;14.63;8.53;;;;;;;;;;5098452;28;20703;-80
2022/12/21 07:59:59;;;;;;;20.60;8.73;;;;;;;;;;5113544;28;20569;-80
2022/12/21 08:02:26;;;;;;;15.77;8.50;;;;;;;;;;5126226;27;20271;-79
2022/12/21 08:04:53;;;;;;;17.97;7.93;;;;;;;;;;5132838;27;20323;-80
2022/12/21 08:07:22;;;;;;;15.73;8.70;;;;;;;;;;5134261;27;20287;-80
2022/12/21 08:09:49;;;;;;;13.40;8.07;;;;;;;;;;5133978;27;20651;-80
2022/12/21 08:12:16;;;;;;;19.33;8.27;;;;;;;;;;5133591;27;20258;-79
2022/12/21 08:14:44;;;;;;;15.00;7.87;;;;;;;;;;5134334;27;20196;-80
2022/12/21 08:17:11;;;;;;;20.87;8.70;;;;;;;;;;5133900;27;20236;-80
2022/12/21 08:19:38;;;;;;;13.23;8.20;;;;;;;;;;5133833;27;20707;-80
2022/12/21 08:22:05;;;;;;;15.07;7.93;;;;;;;;;;5134469;27;20228;-80
2022/12/21 08:24:34;;;;;;;12.80;8.10;;;;;;;;;;5134061;27;20224;-80
2022/12/21 08:27:01;;;;;;;15.60;8.10;;;;;;;;;;5133901;27;20640;-80
2022/12/21 08:29:28;;;;;;;16.77;7.67;;;;;;;;;;5132711;27;20225;-79
2022/12/21 08:31:55;;;;;;;16.03;8.10;;;;;;;;;;5133281;27;20232;-80
2022/12/21 08:34:23;;;;;;;16.23;8.10;;;;;;;;;;5133790;27;20638;-80
2022/12/21 08:36:50;;;;;;;12.10;7.70;;;;;;;;;;5133133;27;20228;-80
2022/12/21 08:39:17;;;;;;;14.33;7.47;;;;;;;;;;5133234;27;20627;-80
2022/12/21 08:41:45;;;;;;;16.73;7.13;;;;;;;;;;5133895;27;20255;-82
2022/12/21 08:44:13;;;;;;;12.00;7.13;;;;;;;;;;5133302;27;20229;-82
2022/12/21 08:46:41;;;;;;;13.03;6.53;;;;;;;;;;5133134;27;20279;-84
2022/12/21 08:49:08;;;;;;;11.07;6.60;;;;;;;;;;5114613;27;20242;-85
2022/12/21 08:51:37;;;;;;;11.77;6.50;;;;;;;;;;5133391;27;20235;-84
2022/12/21 08:54:04;;;;;;;11.17;6.10;;;;;;;;;;5132129;27;20273;-84
2022/12/21 08:56:32;;;;;;;11.97;5.83;;;;;;;;;;5133615;27;20240;-84
2022/12/21 08:59:02;;;;;;;11.13;5.80;;;;;;;;;;5133242;27;20654;-84
2022/12/21 09:01:30;;;;;;;12.60;5.33;;;;;;;;;;5132802;27;20307;-83
2022/12/21 09:03:57;;;;;;;7.20;4.87;;;;;;;;;;5112966;28;20237;-82
2022/12/21 09:06:25;;;;;;;7.00;5.10;;;;;;;;;;5113429;27;20257;-81
2022/12/21 09:08:52;;;;;;;10.43;4.70;;;;;;;;;;5112797;28;20314;-82
2022/12/21 09:11:20;;;;;;;9.03;5.03;;;;;;;;;;5114972;28;20236;-81
2022/12/21 09:13:48;;;;;;;6.47;4.27;;;;;;;;;;5133249;27;20197;-81
2022/12/21 09:16:17;;;;;;;8.97;4.20;;;;;;;;;;5132603;28;20224;-82
2022/12/21 09:18:45;;;;;;;9.00;4.20;;;;;;;;;;5132896;28;20229;-81
2022/12/21 09:21:13;;;;;;;8.93;3.80;;;;;;;;;;5127194;28;20228;-81
2022/12/21 09:23:40;;;;;;;7.90;3.83;;;;;;;;;;5132337;28;20672;-81
2022/12/21 09:26:08;;;;;;;7.67;3.83;;;;;;;;;;5133169;28;20807;-81
2022/12/21 09:28:35;;;;;;;7.17;4.13;;;;;;;;;;5132037;28;20691;-81
2022/12/21 09:31:08;;;;;;;6.70;3.73;;;;;;;;;;5132173;27;20248;-81
2022/12/21 09:33:37;;;;;;;6.50;4.23;;;;;;;;;;5142804;27;20197;-81
2022/12/21 09:36:04;;;;;;;6.33;3.87;;;;;;;;;;5132696;28;20224;-81
2022/12/21 09:38:31;;;;;;;7.83;3.90;;;;;;;;;;5132844;28;20229;-80
2022/12/21 09:41:01;;;;;;;7.03;4.07;;;;;;;;;;5132708;28;20699;-80
2022/12/21 09:43:33;;;;;;;6.47;4.30;;;;;;;;;;5131525;28;20189;-80
2022/12/21 09:46:03;;;;;;;7.17;4.07;;;;;;;;;;5131603;27;20270;-80
2022/12/21 09:48:32;;;;;;;7.87;3.83;;;;;;;;;;5136041;27;20631;-80
2022/12/21 09:51:03;;;;;;;7.07;4.20;;;;;;;;;;5132117;28;20228;-80
2022/12/21 09:53:33;;;;;;;7.20;4.33;;;;;;;;;;5130894;28;20284;-79
2022/12/21 09:56:01;;;;;;;6.80;3.80;;;;;;;;;;5132115;28;20228;-79
2022/12/21 09:58:33;;;;;;;6.70;4.00;;;;;;;;;;5132118;28;20221;-80
2022/12/21 10:01:05;;;;;;;7.13;3.67;;;;;;;;;;5130593;28;20205;-80
2022/12/21 10:03:50;;;;;;;7.93;3.80;;;;;;;;;;5132973;28;20270;-80
2022/12/21 10:06:31;;;;;;;5.73;3.30;;;;;;;;;;5133054;28;20315;-81
2022/12/21 10:09:25;;;;;;;6.27;3.83;;;;;;;;;;5131454;28;20236;-82
2022/12/21 10:11:59;;;;;;;4.80;3.00;;;;;;;;;;5131547;28;20233;-82
2022/12/21 10:14:31;;;;;;;6.13;3.50;;;;;;;;;;5131879;28;20225;-82
2022/12/21 10:17:02;;;;;;;6.93;3.10;;;;;;;;;;5132805;28;20234;-82
2022/12/21 10:19:32;;;;;;;5.83;3.13;;;;;;;;;;5114532;28;20221;-82
2022/12/21 10:22:06;;;;;;;6.83;2.87;;;;;;;;;;5132492;27;20224;-82
2022/12/21 10:24:37;;;;;;;5.37;2.67;;;;;;;;;;5135298;27;20228;-82
2022/12/21 10:27:09;;;;;;;4.07;2.27;;;;;;;;;;5135111;27;20252;-82
2022/12/21 10:29:39;;;;;;;3.63;2.10;;;;;;;;;;5135473;27;20245;-83
2022/12/21 10:32:06;;;;;;;4.30;2.40;;;;;;;;;;5136169;27;20258;-83
2022/12/21 10:34:34;;;;;;;3.67;2.33;;;;;;;;;;5135192;27;20204;-83
2022/12/21 10:37:07;;;;;;;5.13;2.43;;;;;;;;;;5136186;27;20193;-83
2022/12/21 10:39:35;;;;;;;5.93;2.50;;;;;;;;;;5135354;27;20235;-83
2022/12/21 10:42:05;;;;;;;4.83;2.63;;;;;;;;;;5134839;27;20232;-82
2022/12/21 10:44:33;;;;;;;2.63;1.80;;;;;;;;;;5134282;27;20711;-80
2022/12/21 10:47:00;;;;;;;3.10;2.10;;;;;;;;;;5134886;27;20724;-80
2022/12/21 10:49:33;;;;;;;3.73;2.03;;;;;;;;;;5134634;27;20229;-81
2022/12/21 10:52:01;;;;;;;3.00;2.07;;;;;;;;;;5135325;27;20248;-81
2022/12/21 10:54:30;;;;;;;3.57;2.13;;;;;;;;;;5135921;27;20688;-81
2022/12/21 10:56:59;;;;;;;4.20;2.23;;;;;;;;;;5135193;27;20240;-81
2022/12/21 10:59:28;;;;;;;3.03;2.50;;;;;;;;;;5135845;27;20224;-82
2022/12/21 11:01:56;;;;;;;3.03;2.60;;;;;;;;;;5135239;27;20220;-81
2022/12/21 11:04:28;;;;;;;6.13;3.13;;;;;;;;;;5135833;27;20221;-82
2022/12/21 11:06:56;;;;;;;3.57;2.40;;;;;;;;;;5132287;27;20272;-82
2022/12/21 11:09:41;;;;;;;3.47;2.63;;;;;;;;;;5128801;27;20660;-81
2022/12/21 11:12:20;;;;;;;4.60;3.00;;;;;;;;;;5126524;27;20743;-81
2022/12/21 11:14:47;;;;;;;3.73;3.10;;;;;;;;;;5134598;27;20236;-81
2022/12/21 11:17:19;;;;;;;3.73;2.80;;;;;;;;;;5132172;27;20950;-80
2022/12/21 11:19:46;;;;;;;3.37;2.70;;;;;;;;;;5125091;27;20225;-79
2022/12/21 11:22:14;;;;;;;3.50;2.67;;;;;;;;;;5129682;27;20684;-79
2022/12/21 11:24:45;;;;;;;3.60;2.47;;;;;;;;;;5133861;27;20229;-80
2022/12/21 11:27:20;;;;;;;2.97;2.40;;;;;;;;;;5125242;27;20225;-79
2022/12/21 11:29:49;;;;;;;3.00;2.10;;;;;;;;;;5131381;27;20356;-80
2022/12/21 11:32:16;;;;;;;3.10;2.57;;;;;;;;;;5132167;27;20243;-79
2022/12/21 11:34:45;;;;;;;2.60;2.40;;;;;;;;;;5133531;27;20232;-79
2022/12/21 11:37:23;;;;;;;2.77;2.43;;;;;;;;;;5131858;27;20236;-79
2022/12/21 11:39:51;;;;;;;4.03;2.53;;;;;;;;;;5133010;27;20200;-84
2022/12/21 11:42:19;;;;;;;2.40;2.17;;;;;;;;;;5132071;27;20642;-83
2022/12/21 11:44:47;;;;;;;2.87;2.33;;;;;;;;;;5129177;27;20229;-81
2022/12/21 11:47:20;;;;;;;4.73;2.60;;;;;;;;;;5132068;27;20213;-81
2022/12/21 11:50:02;;;;;;;4.77;3.40;;;;;;;;;;5133442;27;20624;-79
2022/12/21 11:52:33;;;;;;;9.67;8.27;;;;;;;;;;5130895;27;20205;-80
2022/12/21 11:55:06;;;;;;;13.67;12.23;;;;;;;;;;5125859;27;20711;-80
2022/12/21 11:57:38;;;;;;;8.23;7.33;;;;;;;;;;5133116;27;20246;-79
2022/12/21 12:00:07;;;;;;;7.40;6.43;;;;;;;;;;5118715;27;20711;-79
2022/12/21 12:02:44;;;;;;;5.80;4.70;;;;;;;;;;5128289;27;20615;-84
2022/12/21 12:05:17;;;;;;;3.10;2.80;;;;;;;;;;5134126;27;20228;-82
2022/12/21 12:07:52;;;;;;;4.00;3.30;;;;;;;;;;5133302;27;20647;-80
2022/12/21 12:10:34;;;;;;;6.13;5.00;;;;;;;;;;5134492;27;20207;-80
2022/12/21 12:13:07;;;;;;;8.43;7.53;;;;;;;;;;5115673;27;20229;-79
2022/12/21 12:15:39;;;;;;;5.80;3.67;;;;;;;;;;5127036;27;20680;-80
2022/12/21 12:18:12;;;;;;;6.60;5.47;;;;;;;;;;5132205;27;20321;-80
2022/12/21 12:20:58;;;;;;;7.07;5.43;;;;;;;;;;5134069;27;20280;-80
2022/12/21 12:23:33;;;;;;;4.23;3.20;;;;;;;;;;5133118;27;20232;-80
2022/12/21 12:26:12;;;;;;;4.70;2.83;;;;;;;;;;5133581;27;21021;-80
2022/12/21 12:28:56;;;;;;;4.07;2.67;;;;;;;;;;5132110;27;20200;-81
2022/12/21 12:31:34;;;;;;;3.67;2.37;;;;;;;;;;5122282;27;20239;-80
2022/12/21 12:34:15;;;;;;;4.73;2.07;;;;;;;;;;5131980;27;20283;-80
2022/12/21 12:36:47;;;;;;;8.00;6.17;;;;;;;;;;5124081;27;20268;-80
2022/12/21 12:39:20;;;;;;;8.27;6.63;;;;;;;;;;5124522;27;20225;-83
2022/12/21 12:41:52;;;;;;;7.20;6.20;;;;;;;;;;5129730;27;20821;-80
2022/12/21 12:44:28;;;;;;;10.90;8.73;;;;;;;;;;5130685;27;20625;-82
2022/12/21 12:47:04;;;;;;;5.80;4.80;;;;;;;;;;5132496;27;20219;-81
2022/12/21 12:49:42;;;;;;;6.40;5.03;;;;;;;;;;5122328;27;20240;-82
2022/12/21 12:52:17;;;;;;;7.23;4.87;;;;;;;;;;5123301;27;20239;-81
2022/12/21 12:54:48;;;;;;;7.57;3.97;;;;;;;;;;5132089;27;20235;-82
2022/12/21 12:57:17;;;;;;;5.83;3.20;;;;;;;;;;5133054;27;20248;-81
2022/12/21 12:59:49;;;;;;;7.47;3.13;;;;;;;;;;5133068;27;20244;-81
2022/12/21 13:02:22;;;;;;;5.47;3.20;;;;;;;;;;5133145;27;20225;-81
2022/12/21 13:04:58;;;;;;;7.27;3.73;;;;;;;;;;5131548;27;20340;-81
2022/12/21 13:07:31;;;;;;;7.80;3.10;;;;;;;;;;5121564;27;20216;-81
2022/12/21 13:10:01;;;;;;;9.47;2.40;;;;;;;;;;5120681;27;20226;-81
2022/12/21 13:12:31;;;;;;;8.87;2.43;;;;;;;;;;5122541;27;20613;-81
2022/12/21 13:15:02;;;;;;;13.10;2.83;;;;;;;;;;5117751;27;20228;-80
2022/12/21 13:17:33;;;;;;;11.77;3.23;;;;;;;;;;5132511;27;20683;-81
2022/12/21 13:20:00;;;;;;;10.87;3.30;;;;;;;;;;5132137;27;20228;-81
2022/12/21 13:22:34;;;;;;;9.27;3.37;;;;;;;;;;5132285;28;20220;-81
2022/12/21 13:25:04;;;;;;;15.10;4.10;;;;;;;;;;5130514;27;20236;-81
2022/12/21 13:27:35;;;;;;;13.17;3.13;;;;;;;;;;5132168;27;20301;-81
2022/12/21 13:30:06;;;;;;;14.87;3.57;;;;;;;;;;5128646;28;20228;-81
2022/12/21 13:32:37;;;;;;;16.13;3.50;;;;;;;;;;5131525;28;20564;-81
2022/12/21 13:35:06;;;;;;;16.57;4.10;;;;;;;;;;5130804;27;20586;-81
2022/12/21 13:37:34;;;;;;;20.80;4.00;;;;;;;;;;5131821;28;20254;-81
2022/12/21 13:40:04;;;;;;;14.90;3.00;;;;;;;;;;5132545;27;20664;-81
2022/12/21 13:42:34;;;;;;;17.07;3.27;;;;;;;;;;5131636;28;20726;-81
2022/12/21 13:45:03;;;;;;;18.03;4.00;;;;;;;;;;5131311;28;20733;-81
2022/12/21 13:47:33;;;;;;;19.33;3.00;;;;;;;;;;5132418;28;20227;-81
2022/12/21 13:50:06;;;;;;;15.77;3.27;;;;;;;;;;5116028;28;20221;-80
2022/12/21 13:52:36;;;;;;;18.37;3.93;;;;;;;;;;5131424;28;20201;-80
2022/12/21 13:55:15;;;;;;;17.60;4.07;;;;;;;;;;5132536;28;20231;-80
2022/12/21 13:57:46;;;;;;;15.13;3.10;;;;;;;;;;5134035;27;20692;-80
2022/12/21 14:00:20;;;;;;;14.93;3.57;;;;;;;;;;5137099;27;20235;-84
2022/12/21 14:02:52;;;;;;;10.77;3.33;;;;;;;;;;5128896;27;20704;-80
2022/12/21 14:05:21;;;;;;;15.03;3.03;;;;;;;;;;5135341;27;20280;-81
2022/12/21 14:07:56;;;;;;;20.13;3.50;;;;;;;;;;5129059;27;20373;-80
2022/12/21 14:10:26;;;;;;;18.70;4.07;;;;;;;;;;5132732;27;20645;-81
2022/12/21 14:13:04;;;;;;;12.40;3.37;;;;;;;;;;5134730;27;20643;-80
2022/12/21 14:15:45;;;;;;;19.50;3.60;;;;;;;;;;5136399;27;20224;-81
2022/12/21 14:18:16;;;;;;;15.50;3.03;;;;;;;;;;5135794;27;20228;-81
2022/12/21 14:20:44;;;;;;;11.23;2.70;;;;;;;;;;5134746;27;20620;-81
2022/12/21 14:23:15;;;;;;;14.87;3.27;;;;;;;;;;5130954;27;20281;-81
2022/12/21 14:25:45;;;;;;;11.27;2.67;;;;;;;;;;5133698;27;20231;-81
2022/12/21 14:28:22;;;;;;;12.00;2.47;;;;;;;;;;5135267;27;20249;-81
2022/12/21 14:30:54;;;;;;;13.67;2.93;;;;;;;;;;5132175;27;20244;-81
2022/12/21 14:33:24;;;;;;;12.30;2.60;;;;;;;;;;5135496;27;20201;-79
2022/12/21 14:36:12;;;;;;;13.93;3.00;;;;;;;;;;5135039;27;20207;-80
2022/12/21 14:38:39;;;;;;;15.10;2.63;;;;;;;;;;5133309;27;20961;-80
2022/12/21 14:41:18;;;;;;;12.90;2.80;;;;;;;;;;5125932;27;20228;-81
2022/12/21 14:44:04;;;;;;;12.80;2.80;;;;;;;;;;5135817;27;20224;-81
2022/12/21 14:46:31;;;;;;;10.70;2.60;;;;;;;;;;5131401;27;20225;-81
2022/12/21 14:49:08;;;;;;;15.30;3.30;;;;;;;;;;5134248;27;20672;-81
2022/12/21 14:51:50;;;;;;;15.33;3.20;;;;;;;;;;5143138;27;20672;-81
2022/12/21 14:54:21;;;;;;;11.37;2.77;;;;;;;;;;5120874;27;20224;-81
2022/12/21 14:57:03;;;;;;;16.87;2.97;;;;;;;;;;5131082;27;20221;-81
2022/12/21 14:59:39;;;;;;;11.20;3.03;;;;;;;;;;5134481;27;20224;-81
2022/12/21 15:02:10;;;;;;;12.63;2.50;;;;;;;;;;5134619;27;20252;-81